Time;durP1;ratioP1;P1;durP2;ratioP2;P2;SDS_P1;SDS_P2;PMS_P1;PMS_P2;Temp;Humidity;BMP_temperature;BMP_pressure;BME280_temperature;BME280_humidity;BME280_pressure;Samples;Min_cycle;Max_cycle;Signal;HPM_P1;HPM_P2
2020/12/26 00:01:17;;;;;;;18.05;6.93;;;4.60;99.90;;;;;;5023976;28;20046;-68
2020/12/26 00:03:45;;;;;;;15.15;6.72;;;4.60;99.90;;;;;;5030189;28;20049;-68
2020/12/26 00:06:16;;;;;;;20.67;8.63;;;4.60;99.90;;;;;;5046945;28;20107;-68
2020/12/26 00:08:44;;;;;;;21.25;7.65;;;4.70;99.90;;;;;;5038082;28;20657;-68
2020/12/26 00:11:12;;;;;;;18.77;7.47;;;4.60;99.90;;;;;;5049655;28;20049;-68
2020/12/26 00:13:40;;;;;;;15.88;5.72;;;4.70;99.90;;;;;;5032807;28;20056;-68
2020/12/26 00:16:08;;;;;;;14.35;5.90;;;4.60;99.90;;;;;;5034347;28;20053;-68
2020/12/26 00:18:36;;;;;;;15.48;6.65;;;4.60;99.90;;;;;;5040982;28;20053;-67
2020/12/26 00:21:07;;;;;;;12.95;5.38;;;4.70;99.90;;;;;;5029534;28;20045;-68
2020/12/26 00:23:34;;;;;;;15.43;6.38;;;4.60;99.90;;;;;;5051778;28;20630;-68
2020/12/26 00:26:01;;;;;;;12.93;5.70;;;4.70;99.90;;;;;;5040990;28;20048;-68
2020/12/26 00:28:28;;;;;;;17.70;7.07;;;4.60;99.90;;;;;;5032967;28;20111;-68
2020/12/26 00:30:55;;;;;;;17.25;6.53;;;4.60;99.90;;;;;;5041507;28;20718;-68
2020/12/26 00:33:21;;;;;;;16.73;7.15;;;4.60;99.90;;;;;;5045144;28;20534;-68
2020/12/26 00:35:49;;;;;;;16.05;6.60;;;4.50;99.90;;;;;;5051799;28;20694;-68
2020/12/26 00:38:16;;;;;;;17.98;7.03;;;4.50;99.90;;;;;;5050246;28;20052;-68
2020/12/26 00:40:43;;;;;;;13.00;5.60;;;4.50;99.90;;;;;;5048912;28;20045;-68
2020/12/26 00:43:09;;;;;;;14.75;6.47;;;4.40;99.90;;;;;;5045613;28;20064;-68
2020/12/26 00:45:36;;;;;;;15.93;5.93;;;4.40;99.90;;;;;;5037182;28;20041;-68
2020/12/26 00:48:03;;;;;;;13.95;5.97;;;4.30;99.90;;;;;;5032717;28;20061;-68
2020/12/26 00:50:30;;;;;;;14.88;5.22;;;4.30;99.90;;;;;;5048727;28;20099;-68
2020/12/26 00:52:57;;;;;;;12.18;4.97;;;4.30;99.90;;;;;;5023133;28;20096;-68
2020/12/26 00:55:27;;;;;;;12.23;4.72;;;4.30;99.90;;;;;;5030068;28;20366;-68
2020/12/26 00:57:54;;;;;;;10.88;4.70;;;4.30;99.90;;;;;;5038445;28;20122;-68
2020/12/26 01:00:20;;;;;;;11.70;5.07;;;4.30;99.90;;;;;;5048995;28;20131;-68
2020/12/26 01:02:57;;;;;;;11.60;3.97;;;4.30;99.90;;;;;;5042578;28;20072;-68
2020/12/26 01:05:26;;;;;;;11.50;4.22;;;4.30;99.90;;;;;;5045718;28;20083;-68
2020/12/26 01:07:52;;;;;;;13.48;4.80;;;4.30;99.90;;;;;;5024315;28;20140;-68
2020/12/26 01:10:19;;;;;;;20.05;7.28;;;4.30;99.90;;;;;;5049340;28;20531;-68
2020/12/26 01:12:45;;;;;;;19.15;7.93;;;4.30;99.90;;;;;;5052267;28;20051;-68
2020/12/26 01:15:12;;;;;;;20.88;8.02;;;4.30;99.90;;;;;;5046769;28;20156;-68
2020/12/26 01:17:42;;;;;;;13.07;5.82;;;4.30;99.90;;;;;;5043127;28;20071;-68
2020/12/26 01:20:08;;;;;;;11.35;5.28;;;4.20;99.90;;;;;;5049932;28;20045;-68
2020/12/26 01:22:35;;;;;;;12.00;5.03;;;4.20;99.90;;;;;;5038412;28;20049;-68
2020/12/26 01:25:05;;;;;;;11.38;4.50;;;4.10;99.90;;;;;;5049489;28;20048;-68
2020/12/26 01:27:35;;;;;;;11.98;4.43;;;4.00;99.90;;;;;;5048364;28;20044;-70
2020/12/26 01:30:03;;;;;;;12.10;3.83;;;4.00;99.90;;;;;;5047143;28;20096;-70
2020/12/26 01:32:31;;;;;;;8.95;3.85;;;3.90;99.90;;;;;;5047792;28;20060;-70
2020/12/26 01:34:59;;;;;;;10.57;4.40;;;3.90;99.90;;;;;;5036659;28;20045;-70
2020/12/26 01:37:27;;;;;;;11.10;4.90;;;3.90;99.90;;;;;;5041340;28;20485;-70
2020/12/26 01:39:54;;;;;;;11.82;4.47;;;3.80;99.90;;;;;;5046098;28;20046;-70
2020/12/26 01:42:20;;;;;;;11.70;4.25;;;3.70;99.90;;;;;;5049144;28;20047;-70
2020/12/26 01:44:47;;;;;;;15.68;5.50;;;3.70;99.90;;;;;;5034405;28;20391;-70
2020/12/26 01:47:15;;;;;;;14.10;5.13;;;3.70;99.90;;;;;;5049152;28;20044;-70
2020/12/26 01:49:42;;;;;;;14.82;4.40;;;3.70;99.90;;;;;;5037460;28;20438;-70
2020/12/26 01:52:10;;;;;;;9.30;3.50;;;3.70;99.90;;;;;;5038829;28;20045;-70
2020/12/26 01:54:38;;;;;;;8.95;3.53;;;3.70;99.90;;;;;;5044893;28;20550;-71
2020/12/26 01:57:05;;;;;;;10.35;3.47;;;3.70;99.90;;;;;;5044035;28;20064;-70
2020/12/26 01:59:32;;;;;;;8.10;3.47;;;3.70;99.90;;;;;;5035856;28;20037;-70
2020/12/26 02:01:59;;;;;;;10.93;3.90;;;3.70;99.90;;;;;;5049714;28;20037;-70
2020/12/26 02:04:26;;;;;;;9.82;3.92;;;3.70;99.90;;;;;;5045571;28;20037;-70
2020/12/26 02:06:56;;;;;;;9.43;3.55;;;3.70;99.90;;;;;;5036560;28;20554;-70
2020/12/26 02:09:24;;;;;;;8.63;3.67;;;3.70;99.90;;;;;;5028547;28;20047;-70
2020/12/26 02:11:51;;;;;;;7.63;2.85;;;3.80;99.90;;;;;;5027972;28;20048;-70
2020/12/26 02:14:17;;;;;;;9.73;3.75;;;3.70;99.90;;;;;;5039799;28;20049;-71
2020/12/26 02:16:46;;;;;;;8.80;3.53;;;3.70;99.90;;;;;;5031361;28;20076;-70
2020/12/26 02:19:14;;;;;;;14.43;4.05;;;3.80;99.90;;;;;;5039474;28;20041;-70
2020/12/26 02:21:41;;;;;;;6.53;2.67;;;3.80;99.90;;;;;;5048054;28;20056;-70
2020/12/26 02:24:08;;;;;;;8.43;3.17;;;3.80;99.90;;;;;;5044553;28;20659;-71
2020/12/26 02:26:35;;;;;;;12.07;3.63;;;3.80;99.90;;;;;;5036979;28;20049;-70
2020/12/26 02:29:02;;;;;;;12.18;4.05;;;3.80;99.90;;;;;;5039725;28;20451;-70
2020/12/26 02:31:28;;;;;;;11.65;3.17;;;3.80;99.90;;;;;;5048461;28;20782;-70
2020/12/26 02:33:55;;;;;;;11.55;4.10;;;3.80;99.90;;;;;;5046528;28;20488;-70
2020/12/26 02:36:22;;;;;;;13.40;4.10;;;3.80;99.90;;;;;;5031397;28;20034;-70
2020/12/26 02:38:49;;;;;;;10.20;3.30;;;3.80;99.90;;;;;;5048378;28;20037;-70
2020/12/26 02:41:16;;;;;;;8.90;3.63;;;3.80;99.90;;;;;;5029223;28;20049;-70
2020/12/26 02:43:42;;;;;;;10.13;3.90;;;3.80;99.90;;;;;;5043590;28;20091;-71
2020/12/26 02:46:09;;;;;;;9.70;3.20;;;3.80;99.90;;;;;;5046578;28;20128;-70
2020/12/26 02:48:36;;;;;;;6.85;2.50;;;3.80;99.90;;;;;;5044425;28;20051;-70
2020/12/26 02:51:03;;;;;;;7.50;3.33;;;3.80;99.90;;;;;;5050251;28;20045;-70
2020/12/26 02:53:30;;;;;;;7.95;3.85;;;3.80;99.90;;;;;;5052603;28;20043;-70
2020/12/26 02:55:57;;;;;;;9.20;3.53;;;3.80;99.90;;;;;;5054080;28;20049;-71
2020/12/26 02:58:23;;;;;;;10.38;3.70;;;3.80;99.90;;;;;;5048379;28;20049;-70
2020/12/26 03:00:50;;;;;;;11.40;4.05;;;3.80;99.90;;;;;;5051923;28;20373;-70
2020/12/26 03:03:17;;;;;;;8.30;3.05;;;3.80;99.90;;;;;;5038260;28;20037;-70
2020/12/26 03:05:43;;;;;;;8.63;3.00;;;3.80;99.90;;;;;;5049947;28;20052;-70
2020/12/26 03:08:10;;;;;;;10.15;2.88;;;3.80;99.90;;;;;;5053376;28;20040;-70
2020/12/26 03:10:37;;;;;;;31.73;8.52;;;3.80;99.90;;;;;;5052480;28;20045;-71
2020/12/26 03:13:03;;;;;;;27.90;8.57;;;3.90;99.90;;;;;;5041232;28;20741;-70
2020/12/26 03:15:30;;;;;;;16.90;5.65;;;3.90;99.90;;;;;;5042004;28;20541;-70
2020/12/26 03:17:57;;;;;;;10.18;3.88;;;3.90;99.90;;;;;;5051853;28;20041;-70
2020/12/26 03:20:23;;;;;;;13.80;4.60;;;3.90;99.90;;;;;;5035382;28;20041;-70
2020/12/26 03:22:50;;;;;;;21.67;5.85;;;3.90;99.90;;;;;;5041839;28;20115;-70
2020/12/26 03:25:19;;;;;;;14.95;4.65;;;3.80;99.90;;;;;;5042090;28;20048;-68
2020/12/26 03:27:46;;;;;;;8.32;3.63;;;3.80;99.90;;;;;;5041271;28;20132;-68
2020/12/26 03:30:13;;;;;;;9.68;3.13;;;3.80;99.90;;;;;;5037447;28;20040;-70
2020/12/26 03:32:39;;;;;;;8.10;2.60;;;3.80;99.90;;;;;;5031050;28;20041;-70
2020/12/26 03:35:06;;;;;;;8.77;2.83;;;3.80;99.90;;;;;;5043328;28;20052;-71
2020/12/26 03:37:36;;;;;;;8.85;2.70;;;3.80;99.90;;;;;;5033600;28;20042;-70
2020/12/26 03:40:05;;;;;;;7.30;2.47;;;3.80;99.90;;;;;;5052306;28;20451;-70
2020/12/26 03:42:32;;;;;;;7.43;2.72;;;3.70;99.90;;;;;;5045469;28;20047;-70
2020/12/26 03:44:58;;;;;;;6.63;2.45;;;3.80;99.90;;;;;;5047675;28;20041;-70
2020/12/26 03:47:25;;;;;;;6.82;2.25;;;3.80;99.90;;;;;;5041428;28;20040;-71
2020/12/26 03:49:51;;;;;;;7.25;2.08;;;3.80;99.90;;;;;;5051762;28;20789;-70
2020/12/26 03:52:18;;;;;;;7.63;2.58;;;3.80;99.90;;;;;;5043953;28;20658;-70
2020/12/26 03:54:44;;;;;;;9.38;2.58;;;3.80;99.90;;;;;;5045130;28;20107;-70
2020/12/26 03:57:14;;;;;;;8.18;2.47;;;3.70;99.90;;;;;;5052488;28;20049;-70
2020/12/26 03:59:41;;;;;;;9.02;3.10;;;3.80;99.90;;;;;;5035375;28;20087;-70
2020/12/26 04:02:08;;;;;;;5.65;2.65;;;3.80;99.90;;;;;;5035898;28;20041;-71
2020/12/26 04:04:35;;;;;;;9.75;3.05;;;3.70;99.90;;;;;;5050854;28;20060;-70
2020/12/26 04:07:02;;;;;;;6.53;2.22;;;3.80;99.90;;;;;;5049838;28;20040;-70
2020/12/26 04:09:30;;;;;;;5.72;2.08;;;3.80;99.90;;;;;;5043319;28;20072;-70
2020/12/26 04:11:56;;;;;;;6.45;2.78;;;3.80;99.90;;;;;;5053971;28;20037;-70
2020/12/26 04:14:23;;;;;;;7.35;2.20;;;3.80;99.90;;;;;;5038125;28;20497;-70
2020/12/26 04:16:57;;;;;;;6.68;1.60;;;3.80;99.90;;;;;;5043796;28;20037;-70
2020/12/26 04:19:25;;;;;;;8.30;2.42;;;3.80;99.90;;;;;;5034646;28;20053;-70
2020/12/26 04:21:53;;;;;;;6.97;2.25;;;3.70;99.90;;;;;;5045382;28;20132;-70
2020/12/26 04:24:20;;;;;;;6.55;1.98;;;3.70;99.90;;;;;;5048102;28;20056;-70
2020/12/26 04:26:47;;;;;;;5.70;2.10;;;3.70;99.90;;;;;;5049870;28;20428;-70
2020/12/26 04:29:14;;;;;;;8.52;2.40;;;3.70;99.90;;;;;;5041845;28;20095;-70
2020/12/26 04:31:40;;;;;;;5.63;2.28;;;3.60;99.90;;;;;;5039379;28;20045;-70
2020/12/26 04:34:08;;;;;;;5.95;2.15;;;3.60;99.90;;;;;;5043938;28;20037;-70
2020/12/26 04:36:34;;;;;;;5.50;1.73;;;3.60;99.90;;;;;;5034844;28;20045;-70
2020/12/26 04:39:01;;;;;;;4.30;1.70;;;3.60;99.90;;;;;;5046774;28;20819;-70
2020/12/26 04:41:28;;;;;;;8.50;2.60;;;3.60;99.90;;;;;;5048222;28;20053;-70
2020/12/26 04:43:55;;;;;;;6.35;1.83;;;3.60;99.90;;;;;;5051454;28;20469;-70
2020/12/26 04:46:26;;;;;;;5.43;1.85;;;3.60;99.90;;;;;;5047853;28;20128;-71
2020/12/26 04:49:10;;;;;;;6.22;2.17;;;3.60;99.90;;;;;;5034487;28;20506;-70
2020/12/26 04:51:41;;;;;;;3.95;1.40;;;3.60;99.90;;;;;;5048135;28;20045;-70
2020/12/26 04:54:31;;;;;;;5.75;1.90;;;3.50;99.90;;;;;;5058322;28;20049;-70
2020/12/26 04:56:57;;;;;;;5.10;1.75;;;3.50;99.90;;;;;;5048771;28;20056;-70
2020/12/26 04:59:24;;;;;;;4.40;2.15;;;3.50;99.90;;;;;;5045660;28;20045;-70
2020/12/26 05:01:52;;;;;;;6.10;1.85;;;3.50;99.90;;;;;;5037367;28;20037;-70
2020/12/26 05:04:19;;;;;;;5.18;1.60;;;3.50;99.90;;;;;;5044846;28;20099;-71
2020/12/26 05:06:53;;;;;;;4.85;1.52;;;3.40;99.90;;;;;;5045391;28;20044;-70
2020/12/26 05:09:21;;;;;;;5.47;1.63;;;3.40;99.90;;;;;;5042431;28;20042;-70
2020/12/26 05:11:55;;;;;;;5.50;1.95;;;3.40;99.90;;;;;;5028218;28;20052;-70
2020/12/26 05:14:23;;;;;;;5.47;1.23;;;3.40;99.90;;;;;;5045445;28;20107;-70
2020/12/26 05:16:51;;;;;;;5.38;1.80;;;3.40;99.90;;;;;;5036126;28;20051;-70
2020/12/26 05:19:18;;;;;;;4.70;1.90;;;3.40;99.90;;;;;;5040040;28;20053;-70
2020/12/26 05:21:46;;;;;;;5.55;1.38;;;3.30;99.90;;;;;;5045326;28;20460;-70
2020/12/26 05:24:17;;;;;;;4.65;1.90;;;3.30;99.90;;;;;;5045523;28;20045;-70
2020/12/26 05:26:45;;;;;;;5.95;1.75;;;3.40;99.90;;;;;;5051155;28;20484;-70
2020/12/26 05:29:13;;;;;;;6.30;2.33;;;3.30;99.90;;;;;;5032791;28;20056;-70
2020/12/26 05:31:44;;;;;;;6.68;2.70;;;3.30;99.90;;;;;;5047865;28;20049;-70
2020/12/26 05:34:11;;;;;;;8.65;2.63;;;3.30;99.90;;;;;;5046751;28;20436;-70
2020/12/26 05:36:38;;;;;;;5.43;1.95;;;3.30;99.90;;;;;;5048805;28;20091;-70
2020/12/26 05:39:06;;;;;;;6.60;2.30;;;3.30;99.90;;;;;;5048229;28;20039;-70
2020/12/26 05:41:36;;;;;;;8.88;2.65;;;3.30;99.90;;;;;;5049660;28;20041;-71
2020/12/26 05:44:03;;;;;;;5.78;2.00;;;3.30;99.90;;;;;;5050276;28;20041;-70
2020/12/26 05:46:30;;;;;;;4.30;1.50;;;3.20;99.90;;;;;;5049778;28;20052;-70
2020/12/26 05:48:56;;;;;;;4.53;1.55;;;3.20;99.90;;;;;;5047781;28;20111;-70
2020/12/26 05:51:25;;;;;;;3.40;1.50;;;3.10;99.90;;;;;;5042223;28;20049;-70
2020/12/26 05:53:56;;;;;;;5.85;1.70;;;3.10;99.90;;;;;;5039764;28;20046;-70
2020/12/26 05:56:23;;;;;;;5.25;1.48;;;3.10;99.90;;;;;;5033654;28;20041;-70
2020/12/26 05:58:50;;;;;;;3.60;1.30;;;3.10;99.90;;;;;;5042914;28;20052;-70
2020/12/26 06:01:20;;;;;;;3.40;0.88;;;3.00;99.90;;;;;;5037162;28;20037;-70
2020/12/26 06:03:47;;;;;;;3.85;1.75;;;3.00;99.90;;;;;;5050215;28;20450;-70
2020/12/26 06:06:15;;;;;;;3.80;1.15;;;3.00;99.90;;;;;;5028248;28;20037;-70
2020/12/26 06:08:42;;;;;;;3.97;1.23;;;3.00;99.90;;;;;;5047747;28;20045;-70
2020/12/26 06:11:13;;;;;;;3.47;1.40;;;3.00;99.90;;;;;;5046808;28;20049;-70
2020/12/26 06:13:40;;;;;;;6.45;1.42;;;3.00;99.90;;;;;;5036335;28;20087;-70
2020/12/26 06:16:10;;;;;;;4.28;0.98;;;2.90;99.90;;;;;;5038578;28;20481;-70
2020/12/26 06:18:41;;;;;;;4.25;1.35;;;2.90;99.90;;;;;;5046005;28;20049;-70
2020/12/26 06:21:08;;;;;;;5.00;1.58;;;2.90;99.90;;;;;;5041638;28;20057;-70
2020/12/26 06:23:38;;;;;;;9.15;3.33;;;2.90;99.90;;;;;;5044803;28;20053;-70
2020/12/26 06:26:05;;;;;;;9.35;3.40;;;2.90;99.90;;;;;;5029701;28;20045;-70
2020/12/26 06:28:35;;;;;;;5.47;2.40;;;2.90;99.90;;;;;;5040860;28;20044;-70
2020/12/26 06:31:10;;;;;;;5.15;1.70;;;2.90;99.90;;;;;;5049652;28;20049;-70
2020/12/26 06:33:46;;;;;;;3.70;1.33;;;2.90;99.90;;;;;;5030410;28;20051;-70
2020/12/26 06:36:13;;;;;;;3.95;1.48;;;2.90;99.90;;;;;;5047299;28;20037;-70
2020/12/26 06:38:41;;;;;;;5.63;1.50;;;2.90;99.90;;;;;;5046038;28;20551;-70
2020/12/26 06:41:15;;;;;;;5.18;1.55;;;2.90;99.90;;;;;;5043150;28;20074;-70
2020/12/26 06:43:52;;;;;;;4.97;1.90;;;2.90;99.90;;;;;;5054453;28;20079;-70
2020/12/26 06:46:21;;;;;;;4.70;1.08;;;2.90;99.90;;;;;;5051382;28;20047;-70
2020/12/26 06:48:56;;;;;;;3.85;1.45;;;2.90;99.90;;;;;;5029278;28;20579;-70
2020/12/26 06:51:30;;;;;;;4.07;1.38;;;2.90;99.90;;;;;;5044970;28;20076;-70
2020/12/26 06:53:58;;;;;;;4.53;2.03;;;2.90;99.90;;;;;;5037093;28;20488;-70
2020/12/26 06:56:34;;;;;;;3.55;1.70;;;3.00;99.90;;;;;;5038464;28;20041;-70
2020/12/26 06:59:01;;;;;;;4.25;1.60;;;3.00;99.90;;;;;;5040099;28;20049;-70
2020/12/26 07:01:29;;;;;;;4.50;1.40;;;3.00;99.90;;;;;;5048072;28;20045;-71
2020/12/26 07:04:10;;;;;;;6.50;1.92;;;3.00;99.90;;;;;;5049726;28;20488;-70
2020/12/26 07:06:44;;;;;;;5.20;1.63;;;3.00;99.90;;;;;;5036137;28;20045;-69
2020/12/26 07:09:15;;;;;;;3.10;1.05;;;3.10;99.90;;;;;;5030592;28;20045;-69
2020/12/26 07:11:50;;;;;;;2.47;1.27;;;3.10;99.90;;;;;;5040599;28;20057;-68
2020/12/26 07:14:34;;;;;;;7.72;2.88;;;3.20;99.90;;;;;;5048728;28;20385;-69
2020/12/26 07:17:13;;;;;;;14.23;6.03;;;3.20;99.50;;;;;;5044351;28;20413;-68
2020/12/26 07:19:42;;;;;;;13.70;7.18;;;3.30;98.80;;;;;;5046873;28;20494;-68
2020/12/26 07:22:21;;;;;;;11.45;6.78;;;3.30;98.00;;;;;;5047457;28;20068;-67
2020/12/26 07:24:54;;;;;;;6.72;3.13;;;3.30;97.70;;;;;;5048886;28;20052;-68
2020/12/26 07:27:29;;;;;;;5.28;2.35;;;3.40;97.80;;;;;;5047714;28;20056;-68
2020/12/26 07:29:57;;;;;;;4.97;2.35;;;3.40;96.70;;;;;;5041399;28;20079;-68
2020/12/26 07:32:35;;;;;;;3.15;0.80;;;3.50;96.70;;;;;;5036342;28;20064;-68
2020/12/26 07:35:19;;;;;;;5.57;2.17;;;3.50;95.00;;;;;;5036868;28;20135;-67
2020/12/26 07:38:01;;;;;;;5.30;1.63;;;3.50;95.20;;;;;;5053255;28;20045;-68
2020/12/26 07:40:45;;;;;;;6.25;1.80;;;3.50;94.70;;;;;;5049126;28;20045;-68
2020/12/26 07:43:13;;;;;;;3.75;1.00;;;3.60;94.70;;;;;;5052008;28;20041;-68
2020/12/26 07:45:42;;;;;;;2.75;0.80;;;3.60;95.10;;;;;;5046354;28;20148;-68
2020/12/26 07:48:10;;;;;;;2.95;1.05;;;3.60;94.50;;;;;;5040611;28;20033;-67
2020/12/26 07:50:41;;;;;;;2.33;0.60;;;3.70;94.60;;;;;;5051513;28;20120;-68
2020/12/26 07:53:13;;;;;;;1.67;0.57;;;3.80;93.80;;;;;;5042390;28;20068;-68
2020/12/26 07:55:40;;;;;;;0.93;0.50;;;3.80;93.40;;;;;;5040654;28;20041;-67
2020/12/26 07:58:11;;;;;;;1.30;0.55;;;3.70;93.30;;;;;;5042818;28;20049;-68
2020/12/26 08:00:39;;;;;;;4.63;0.52;;;3.70;92.70;;;;;;5054768;28;20053;-67
2020/12/26 08:03:08;;;;;;;3.03;0.60;;;3.70;92.50;;;;;;5049261;28;20037;-67
2020/12/26 08:05:41;;;;;;;2.42;0.60;;;3.60;92.80;;;;;;5047169;28;20095;-68
2020/12/26 08:08:16;;;;;;;2.10;0.43;;;3.50;92.80;;;;;;5052094;28;20128;-68
2020/12/26 08:10:43;;;;;;;3.95;0.65;;;3.40;92.90;;;;;;5046809;28;20049;-67
2020/12/26 08:13:15;;;;;;;3.35;0.90;;;3.40;93.00;;;;;;5046106;28;20404;-67
2020/12/26 08:15:43;;;;;;;4.25;0.77;;;3.30;92.70;;;;;;5046043;28;20052;-68
2020/12/26 08:18:10;;;;;;;3.03;0.95;;;3.30;92.90;;;;;;5042902;28;20455;-67
2020/12/26 08:20:38;;;;;;;2.33;0.60;;;3.30;92.20;;;;;;5046375;28;20049;-67
2020/12/26 08:23:11;;;;;;;4.00;0.73;;;3.30;92.70;;;;;;5029841;28;20092;-67
2020/12/26 08:25:37;;;;;;;3.83;0.90;;;3.30;92.80;;;;;;5036551;28;20045;-67
2020/12/26 08:28:09;;;;;;;5.18;0.85;;;3.30;92.70;;;;;;5034356;28;20057;-67
2020/12/26 08:30:38;;;;;;;2.53;0.60;;;3.40;92.80;;;;;;5042622;28;20376;-67
2020/12/26 08:33:28;;;;;;;3.97;1.13;;;3.50;92.80;;;;;;5049928;28;20052;-68
2020/12/26 08:36:11;;;;;;;3.65;0.50;;;3.60;91.80;;;;;;5042297;28;20431;-68
2020/12/26 08:38:51;;;;;;;4.57;1.00;;;3.70;91.70;;;;;;5046862;28;20092;-67
2020/12/26 08:41:19;;;;;;;4.72;0.90;;;3.80;91.10;;;;;;5047938;28;20047;-68
2020/12/26 08:43:46;;;;;;;12.60;2.58;;;3.90;91.40;;;;;;5046339;28;20048;-68
2020/12/26 08:46:23;;;;;;;8.13;2.20;;;4.00;91.20;;;;;;5043498;28;20045;-68
2020/12/26 08:48:52;;;;;;;5.78;1.15;;;4.20;89.90;;;;;;5039868;28;20107;-67
2020/12/26 08:51:20;;;;;;;3.50;0.73;;;4.20;85.50;;;;;;5045064;28;20049;-67
2020/12/26 08:53:49;;;;;;;6.60;2.03;;;4.30;84.80;;;;;;5040899;28;20041;-67
2020/12/26 08:56:30;;;;;;;12.45;3.00;;;4.40;85.30;;;;;;5041577;28;20079;-67
2020/12/26 08:58:56;;;;;;;3.35;1.10;;;4.40;85.20;;;;;;5022947;28;20073;-67
2020/12/26 09:01:23;;;;;;;3.70;0.90;;;4.50;81.90;;;;;;5047805;28;20071;-67
2020/12/26 09:03:50;;;;;;;3.65;0.70;;;4.60;80.70;;;;;;5025334;28;20060;-68
2020/12/26 09:06:17;;;;;;;2.83;0.80;;;4.70;81.00;;;;;;5041252;28;20041;-68
2020/12/26 09:08:44;;;;;;;4.45;0.93;;;4.90;79.40;;;;;;5049348;28;20491;-67
2020/12/26 09:11:12;;;;;;;2.85;0.70;;;5.30;79.10;;;;;;5042775;28;20045;-68
2020/12/26 09:13:44;;;;;;;5.97;1.73;;;5.60;77.90;;;;;;5044875;28;20428;-67
2020/12/26 09:16:12;;;;;;;5.72;1.13;;;5.70;76.20;;;;;;5048583;28;20041;-67
2020/12/26 09:18:44;;;;;;;1.90;0.38;;;5.70;75.00;;;;;;5042987;28;20058;-67
2020/12/26 09:21:28;;;;;;;1.35;0.40;;;5.50;74.60;;;;;;5044784;28;20396;-67
2020/12/26 09:23:57;;;;;;;3.33;0.73;;;5.50;75.00;;;;;;5047206;28;20046;-67
2020/12/26 09:26:29;;;;;;;2.63;0.60;;;5.80;75.90;;;;;;5043411;28;20049;-67
2020/12/26 09:28:58;;;;;;;5.78;1.10;;;6.00;74.20;;;;;;5035118;28;20076;-67
2020/12/26 09:31:30;;;;;;;2.25;0.75;;;6.00;73.40;;;;;;5031125;28;20057;-67
2020/12/26 09:33:59;;;;;;;4.10;0.98;;;5.80;72.30;;;;;;5043217;28;20156;-67
2020/12/26 09:36:27;;;;;;;2.53;0.82;;;5.60;73.40;;;;;;5045173;28;20116;-67
2020/12/26 09:38:54;;;;;;;4.00;0.75;;;5.40;73.50;;;;;;5047951;28;20087;-67
2020/12/26 09:41:24;;;;;;;1.65;0.45;;;5.40;73.50;;;;;;5047311;28;20060;-67
2020/12/26 09:43:56;;;;;;;1.20;0.40;;;5.70;73.80;;;;;;5052698;28;20091;-67
2020/12/26 09:46:22;;;;;;;2.83;0.70;;;6.00;72.90;;;;;;5038915;28;20055;-68
2020/12/26 09:48:50;;;;;;;2.35;0.50;;;6.20;71.00;;;;;;5039295;28;20049;-67
2020/12/26 09:51:19;;;;;;;2.42;0.63;;;6.50;70.30;;;;;;5023942;28;20041;-67
2020/12/26 09:53:49;;;;;;;1.63;0.50;;;6.70;70.00;;;;;;5043578;28;20047;-67
2020/12/26 09:56:17;;;;;;;1.75;0.45;;;6.60;68.80;;;;;;5063790;28;20052;-66
2020/12/26 09:58:45;;;;;;;2.40;0.50;;;6.40;69.00;;;;;;5048992;28;20045;-66
2020/12/26 10:01:13;;;;;;;1.65;0.47;;;6.00;69.00;;;;;;5048759;28;20530;-67
2020/12/26 10:03:41;;;;;;;1.67;0.47;;;5.70;69.50;;;;;;5033209;28;20049;-68
2020/12/26 10:06:10;;;;;;;1.30;0.45;;;5.50;69.50;;;;;;5045243;28;20043;-68
2020/12/26 10:08:37;;;;;;;3.05;0.50;;;5.70;70.00;;;;;;5040258;28;20411;-67
2020/12/26 10:11:04;;;;;;;1.65;0.50;;;5.60;70.20;;;;;;5025301;28;20065;-66
2020/12/26 10:13:31;;;;;;;3.03;0.70;;;5.60;69.60;;;;;;5038014;28;20041;-65
2020/12/26 10:15:57;;;;;;;1.45;0.60;;;5.40;70.00;;;;;;5041615;28;20507;-65
2020/12/26 10:18:24;;;;;;;3.83;0.82;;;5.70;70.90;;;;;;5042417;28;20080;-65
2020/12/26 10:20:52;;;;;;;2.05;0.60;;;6.10;68.20;;;;;;5042586;28;20099;-65
2020/12/26 10:23:18;;;;;;;2.35;0.50;;;6.50;67.30;;;;;;5041334;28;20482;-67
2020/12/26 10:25:48;;;;;;;1.67;0.38;;;6.80;67.10;;;;;;5045602;28;20075;-67
2020/12/26 10:28:17;;;;;;;1.55;0.30;;;7.00;65.30;;;;;;5049999;28;20041;-67
2020/12/26 10:30:46;;;;;;;2.70;0.40;;;7.10;64.00;;;;;;5049328;28;20040;-67
2020/12/26 10:33:12;;;;;;;1.98;0.40;;;7.10;63.60;;;;;;5042204;28;20580;-65
2020/12/26 10:35:39;;;;;;;2.78;0.40;;;7.30;64.10;;;;;;5037948;28;20056;-65
2020/12/26 10:38:06;;;;;;;1.83;0.60;;;7.50;63.00;;;;;;5045541;28;20037;-64
2020/12/26 10:40:33;;;;;;;1.75;0.40;;;7.70;63.60;;;;;;5028528;28;20049;-65
2020/12/26 10:42:59;;;;;;;2.03;0.50;;;7.50;61.10;;;;;;5040041;28;20098;-64
2020/12/26 10:45:26;;;;;;;2.67;0.40;;;7.50;61.80;;;;;;5018230;28;20059;-64
2020/12/26 10:47:53;;;;;;;2.33;0.60;;;7.60;60.50;;;;;;5047401;28;20044;-65
2020/12/26 10:50:19;;;;;;;1.55;0.43;;;7.40;61.70;;;;;;5043428;28;20041;-65
2020/12/26 10:52:46;;;;;;;1.30;0.50;;;7.50;60.80;;;;;;5042496;28;20040;-64
2020/12/26 10:55:14;;;;;;;3.72;0.60;;;7.60;61.00;;;;;;5046061;28;20041;-65
2020/12/26 10:57:43;;;;;;;4.18;1.30;;;7.30;61.40;;;;;;5045644;28;20038;-65
2020/12/26 11:00:13;;;;;;;1.30;0.50;;;7.30;62.20;;;;;;5024988;28;20107;-64
2020/12/26 11:02:40;;;;;;;2.85;0.60;;;7.10;62.30;;;;;;5041007;28;20045;-65
2020/12/26 11:05:06;;;;;;;1.90;0.50;;;7.00;62.50;;;;;;5032391;28;20052;-64
2020/12/26 11:07:33;;;;;;;0.82;0.47;;;7.00;62.40;;;;;;5041280;28;20048;-64
2020/12/26 11:10:00;;;;;;;4.20;1.02;;;6.90;62.50;;;;;;5049810;28;20049;-64
2020/12/26 11:12:27;;;;;;;2.47;0.50;;;6.70;63.50;;;;;;5044158;28;20116;-65
2020/12/26 11:14:54;;;;;;;1.67;0.38;;;6.70;64.10;;;;;;5042701;28;20691;-64
2020/12/26 11:17:21;;;;;;;2.22;0.50;;;7.10;62.90;;;;;;5045812;28;20091;-66
2020/12/26 11:19:47;;;;;;;1.38;0.52;;;7.70;62.10;;;;;;5039892;28;20076;-66
2020/12/26 11:22:14;;;;;;;2.38;0.52;;;7.90;60.10;;;;;;5037271;28;20045;-66
2020/12/26 11:24:41;;;;;;;1.55;0.38;;;8.20;60.90;;;;;;5043250;28;20114;-64
2020/12/26 11:27:11;;;;;;;2.72;0.43;;;8.70;59.30;;;;;;5045831;28;20041;-66
2020/12/26 11:29:37;;;;;;;3.83;1.10;;;9.10;57.70;;;;;;5032706;28;20088;-66
2020/12/26 11:32:04;;;;;;;2.40;0.70;;;9.50;56.50;;;;;;5038423;28;20057;-66
2020/12/26 11:34:31;;;;;;;4.00;0.95;;;9.90;55.00;;;;;;5044701;28;20048;-65
2020/12/26 11:36:57;;;;;;;3.22;0.73;;;10.10;54.60;;;;;;5048421;28;20056;-66
2020/12/26 11:39:24;;;;;;;1.80;0.32;;;10.30;53.70;;;;;;5032013;28;20455;-66
2020/12/26 11:41:51;;;;;;;1.95;0.90;;;10.30;53.10;;;;;;5050638;28;20124;-67
2020/12/26 11:44:18;;;;;;;2.25;0.30;;;10.40;53.50;;;;;;5046106;28;20056;-66
2020/12/26 11:46:44;;;;;;;1.63;0.30;;;10.00;52.80;;;;;;5041554;28;20508;-67
2020/12/26 11:49:11;;;;;;;1.33;0.40;;;9.90;53.70;;;;;;5041096;28;20440;-66
2020/12/26 11:51:37;;;;;;;2.63;0.55;;;9.90;52.60;;;;;;5032736;28;20055;-66
2020/12/26 11:54:04;;;;;;;1.30;0.30;;;9.90;53.30;;;;;;5047432;28;20041;-67
2020/12/26 11:56:51;;;;;;;2.67;0.57;;;9.30;54.10;;;;;;5048075;28;20048;-65
2020/12/26 11:59:18;;;;;;;1.73;0.60;;;8.50;56.00;;;;;;5053442;28;20041;-66
2020/12/26 12:01:45;;;;;;;2.42;0.70;;;8.00;58.00;;;;;;5046035;28;20056;-66
2020/12/26 12:04:12;;;;;;;1.92;0.30;;;7.80;58.00;;;;;;5050313;28;20033;-67
2020/12/26 12:06:39;;;;;;;1.88;0.52;;;7.90;58.30;;;;;;5049031;28;20057;-66
2020/12/26 12:09:06;;;;;;;1.17;0.30;;;7.70;58.60;;;;;;5047432;28;20396;-66
2020/12/26 12:11:33;;;;;;;1.98;0.47;;;7.50;59.00;;;;;;5044199;28;20094;-65
2020/12/26 12:13:59;;;;;;;2.15;0.68;;;7.50;59.90;;;;;;5047029;28;20048;-66
2020/12/26 12:16:27;;;;;;;2.10;0.45;;;7.60;60.50;;;;;;5046326;28;20051;-66
2020/12/26 12:18:54;;;;;;;3.28;0.40;;;8.00;58.20;;;;;;5044828;28;20033;-66
2020/12/26 12:21:21;;;;;;;2.85;0.50;;;8.40;58.20;;;;;;5044509;28;20112;-66
2020/12/26 12:23:48;;;;;;;2.92;0.77;;;9.00;55.30;;;;;;5039647;28;20057;-66
2020/12/26 12:26:24;;;;;;;3.03;0.95;;;10.00;54.50;;;;;;5049842;28;20045;-66
2020/12/26 12:28:54;;;;;;;4.20;0.90;;;10.60;51.90;;;;;;5067504;28;20052;-66
2020/12/26 12:31:25;;;;;;;7.75;2.05;;;11.10;51.00;;;;;;5051916;28;20040;-66
2020/12/26 12:33:55;;;;;;;3.30;1.00;;;11.50;51.10;;;;;;5044382;28;20716;-66
2020/12/26 12:36:22;;;;;;;1.25;0.30;;;11.80;49.90;;;;;;5046523;28;20048;-66
2020/12/26 12:38:48;;;;;;;1.13;0.30;;;11.80;48.60;;;;;;5042089;28;20040;-65
2020/12/26 12:41:15;;;;;;;1.60;0.55;;;11.50;48.50;;;;;;5036127;28;20053;-66
2020/12/26 12:43:42;;;;;;;1.30;0.28;;;11.50;49.90;;;;;;5050861;28;20041;-66
2020/12/26 12:46:10;;;;;;;1.65;0.30;;;11.40;49.00;;;;;;5065422;28;20400;-66
2020/12/26 12:48:38;;;;;;;2.22;0.73;;;11.30;49.10;;;;;;5044095;28;20042;-66
2020/12/26 12:51:04;;;;;;;2.95;0.80;;;11.30;49.90;;;;;;5064865;28;20048;-66
2020/12/26 12:53:31;;;;;;;2.63;0.50;;;11.20;50.20;;;;;;5043635;28;20681;-65
2020/12/26 12:55:57;;;;;;;3.10;0.40;;;10.90;49.80;;;;;;5041690;28;20072;-66
2020/12/26 12:58:25;;;;;;;1.45;0.52;;;10.70;50.30;;;;;;5063482;28;20140;-66
2020/12/26 13:00:52;;;;;;;1.52;0.60;;;10.50;51.50;;;;;;5042040;28;20114;-64
2020/12/26 13:03:18;;;;;;;1.58;0.50;;;10.00;52.70;;;;;;5031948;28;20136;-65